Time;durP1;ratioP1;P1;durP2;ratioP2;P2;SDS_P1;SDS_P2;PMS_P1;PMS_P2;Temp;Humidity;BMP_temperature;BMP_pressure;BME280_temperature;BME280_humidity;BME280_pressure;Samples;Min_cycle;Max_cycle;Signal;HPM_P1;HPM_P2
2021/12/22 00:01:05;;;;;;;;;;;;;;;0.52;66.10;101248.03;5132090;28;19968;-71
2021/12/22 00:03:32;;;;;;;;;;;;;;;0.23;66.99;101265.34;5113734;28;20006;-71
2021/12/22 00:05:58;;;;;;;;;;;;;;;0.03;68.76;101261.31;5132101;28;19911;-71
2021/12/22 00:08:25;;;;;;;;;;;;;;;-0.17;71.30;101263.13;5132280;28;20422;-71
2021/12/22 00:10:53;;;;;;;;;;;;;;;0.08;76.55;101257.34;5132483;28;19954;-71
2021/12/22 00:13:19;;;;;;;;;;;;;;;-0.08;73.72;101253.47;5113519;28;19966;-71
2021/12/22 00:15:48;;;;;;;;;;;;;;;-0.29;78.85;101266.03;5113629;28;19919;-71
2021/12/22 00:18:14;;;;;;;;;;;;;;;-0.20;84.97;101263.03;5113533;28;19911;-70
2021/12/22 00:20:40;;;;;;;;;;;;;;;-0.12;84.43;101276.63;5114190;27;19918;-70
2021/12/22 00:23:06;;;;;;;;;;;;;;;-0.38;86.26;101279.84;5136159;27;19960;-71
2021/12/22 00:25:36;;;;;;;;;;;;;;;-0.32;88.28;101293.38;5117541;27;20266;-71
2021/12/22 00:28:03;;;;;;;;;;;;;;;-0.61;93.10;101293.94;5117518;27;19911;-70
2021/12/22 00:30:31;;;;;;;;;;;;;;;-0.42;98.94;101291.38;5117625;27;19912;-71
2021/12/22 00:33:03;;;;;;;;;;;;;;;-0.63;100.00;101305.50;5117293;27;20754;-71
2021/12/22 00:35:37;;;;;;;;;;;;;;;-0.24;100.00;101299.50;5135780;27;19959;-70
2021/12/22 00:38:04;;;;;;;;;;;;;;;-0.22;99.56;101302.91;5117398;27;19911;-70
2021/12/22 00:40:29;;;;;;;;;;;;;;;-0.34;98.47;101296.63;5135575;27;19938;-70
2021/12/22 00:42:55;;;;;;;;;;;;;;;-0.39;100.00;101303.94;5135802;27;20407;-71
2021/12/22 00:45:24;;;;;;;;;;;;;;;-0.62;96.14;101306.38;5117042;27;19911;-71
2021/12/22 00:47:52;;;;;;;;;;;;;;;-0.50;95.76;101295.22;5135440;27;19915;-70
2021/12/22 00:50:17;;;;;;;;;;;;;;;-0.46;93.88;101303.66;5135697;27;20302;-70
2021/12/22 00:52:43;;;;;;;;;;;;;;;-0.31;93.38;101295.09;5135416;27;19968;-70
2021/12/22 00:55:17;;;;;;;;;;;;;;;-0.77;96.93;101306.63;5135518;27;19911;-71
2021/12/22 00:57:42;;;;;;;;;;;;;;;-0.78;100.00;101309.94;5135167;27;20371;-71
2021/12/22 01:00:09;;;;;;;;;;;;;;;-1.05;100.00;101316.34;5116860;27;19912;-71
2021/12/22 01:02:35;;;;;;;;;;;;;;;-1.34;100.00;101322.63;5135253;27;19915;-70
2021/12/22 01:05:00;;;;;;;;;;;;;;;-1.24;100.00;101312.25;5135404;27;20455;-71
2021/12/22 01:07:26;;;;;;;;;;;;;;;-1.41;100.00;101307.38;5116739;27;20010;-70
2021/12/22 01:09:52;;;;;;;;;;;;;;;-1.42;100.00;101308.13;5135153;27;20342;-70
2021/12/22 01:12:18;;;;;;;;;;;;;;;-1.38;100.00;101307.47;5135094;27;20022;-71
2021/12/22 01:14:44;;;;;;;;;;;;;;;-1.18;100.00;101300.03;5116604;27;19990;-71
2021/12/22 01:17:13;;;;;;;;;;;;;;;-1.28;100.00;101299.59;5116743;27;19912;-71
2021/12/22 01:22:28;;;;;;;;;;;;;;;-1.41;100.00;101294.91;5135185;27;19959;-71
2021/12/22 01:25:02;;;;;;;;;;;;;;;-1.18;100.00;101299.16;5135081;27;19911;-70
2021/12/22 01:27:38;;;;;;;;;;;;;;;-1.18;100.00;101290.03;5134857;27;20463;-71
2021/12/22 01:30:07;;;;;;;;;;;;;;;-1.39;100.00;101296.66;5116437;27;19960;-71
2021/12/22 01:32:34;;;;;;;;;;;;;;;-1.35;100.00;101293.50;5133921;27;19912;-71
2021/12/22 01:35:00;;;;;;;;;;;;;;;-1.70;100.00;101301.16;5116388;27;19911;-71
2021/12/22 01:37:25;;;;;;;;;;;;;;;-1.43;100.00;101301.47;5116157;27;19911;-70
2021/12/22 01:39:51;;;;;;;;;;;;;;;-1.46;100.00;101303.81;5116125;27;20307;-70
2021/12/22 01:42:19;;;;;;;;;;;;;;;-1.21;100.00;101302.38;5116134;27;19916;-71
2021/12/22 01:50:42;;;;;;;;;;;;;;;-1.58;100.00;101314.13;5134637;27;19918;-71
2021/12/22 01:53:24;;;;;;;;;;;;;;;-1.72;100.00;101306.88;5116033;27;19916;-71
2021/12/22 01:56:00;;;;;;;;;;;;;;;-1.52;100.00;101304.41;5115961;27;19912;-71
2021/12/22 01:58:32;;;;;;;;;;;;;;;-1.64;100.00;101308.06;5134267;27;19922;-71
2021/12/22 02:00:59;;;;;;;;;;;;;;;-1.88;100.00;101308.69;5134454;27;19951;-71
2021/12/22 02:03:25;;;;;;;;;;;;;;;-1.65;100.00;101306.34;5134298;27;19917;-71
2021/12/22 02:05:58;;;;;;;;;;;;;;;-2.00;100.00;101307.34;5134182;27;20005;-70
2021/12/22 02:08:29;;;;;;;;;;;;;;;-1.83;100.00;101304.78;5115728;27;20363;-71
2021/12/22 02:10:56;;;;;;;;;;;;;;;-1.65;100.00;101303.84;5115765;27;20389;-70
2021/12/22 02:13:32;;;;;;;;;;;;;;;-1.85;100.00;101306.34;5115407;27;19919;-71
2021/12/22 02:16:07;;;;;;;;;;;;;;;-2.01;100.00;101301.50;5115628;27;20367;-70
2021/12/22 02:18:35;;;;;;;;;;;;;;;-1.28;100.00;101302.06;5134029;27;19912;-71
2021/12/22 02:21:07;;;;;;;;;;;;;;;-1.64;100.00;101305.56;5115332;27;19912;-71
2021/12/22 02:23:34;;;;;;;;;;;;;;;-1.74;100.00;101304.28;5115406;27;19911;-71
2021/12/22 02:26:14;;;;;;;;;;;;;;;-1.64;100.00;101298.09;5115405;27;19911;-71
2021/12/22 02:28:45;;;;;;;;;;;;;;;-2.04;100.00;101306.31;5133580;27;19911;-71
2021/12/22 02:31:14;;;;;;;;;;;;;;;-1.94;100.00;101310.91;5133523;27;19968;-71
2021/12/22 02:33:42;;;;;;;;;;;;;;;-1.18;100.00;101306.66;5133557;27;19911;-70
2021/12/22 02:36:22;;;;;;;;;;;;;;;-1.46;100.00;101308.78;5115005;27;19922;-70
2021/12/22 02:38:54;;;;;;;;;;;;;;;-2.01;100.00;101313.09;5133270;27;19916;-71
2021/12/22 02:41:27;;;;;;;;;;;;;;;-1.77;100.00;101307.53;5115162;27;19932;-70
2021/12/22 02:43:55;;;;;;;;;;;;;;;-2.19;100.00;101309.78;5132647;27;19925;-71
2021/12/22 02:46:27;;;;;;;;;;;;;;;-1.75;100.00;101305.09;5114407;27;19918;-71
2021/12/22 02:48:54;;;;;;;;;;;;;;;-1.83;100.00;101297.31;5114917;27;20295;-71
2021/12/22 02:51:21;;;;;;;;;;;;;;;-2.06;100.00;101305.41;5133041;27;19993;-71
2021/12/22 03:04:14;;;;;;;;;;;;;;;-1.36;100.00;101313.38;5132918;27;20385;-71
2021/12/22 03:06:52;;;;;;;;;;;;;;;-1.74;100.00;101319.25;5132996;27;19919;-71
2021/12/22 03:09:31;;;;;;;;;;;;;;;-2.32;100.00;101315.88;5114454;27;19916;-71
2021/12/22 03:12:01;;;;;;;;;;;;;;;-1.98;100.00;101314.06;5114192;27;20089;-71
2021/12/22 03:14:27;;;;;;;;;;;;;;;-2.15;100.00;101316.59;5114405;27;19918;-71
2021/12/22 03:16:53;;;;;;;;;;;;;;;-2.20;100.00;101323.84;5132849;27;19912;-72
2021/12/22 03:19:20;;;;;;;;;;;;;;;-2.33;100.00;101324.09;5132685;27;19919;-71
2021/12/22 03:21:47;;;;;;;;;;;;;;;-2.19;100.00;101322.22;5132885;27;19915;-71
2021/12/22 03:24:13;;;;;;;;;;;;;;;-2.10;100.00;101330.97;5132491;27;19911;-71
2021/12/22 03:26:42;;;;;;;;;;;;;;;-2.80;100.00;101336.00;5114163;27;19922;-71
2021/12/22 03:29:17;;;;;;;;;;;;;;;-2.63;100.00;101342.59;5132682;27;19972;-71
2021/12/22 03:31:43;;;;;;;;;;;;;;;-2.70;100.00;101330.69;5132459;27;19919;-70
2021/12/22 03:34:09;;;;;;;;;;;;;;;-2.83;100.00;101346.66;5132422;27;19911;-71
2021/12/22 03:36:44;;;;;;;;;;;;;;;-2.12;100.00;101341.66;5132552;27;20306;-71
2021/12/22 03:39:12;;;;;;;;;;;;;;;-2.34;100.00;101347.31;5114083;27;19911;-71
2021/12/22 03:41:39;;;;;;;;;;;;;;;-2.99;100.00;101346.69;5114182;27;19954;-71
2021/12/22 03:44:05;;;;;;;;;;;;;;;-2.42;100.00;101345.25;5132808;27;19915;-71
2021/12/22 03:46:31;;;;;;;;;;;;;;;-3.02;100.00;101350.69;5113974;27;19911;-71
2021/12/22 03:49:00;;;;;;;;;;;;;;;-2.49;100.00;101351.56;5114248;27;19912;-71
2021/12/22 03:51:26;;;;;;;;;;;;;;;-2.21;100.00;101354.53;5132321;27;20342;-71
2021/12/22 03:53:54;;;;;;;;;;;;;;;-2.87;100.00;101364.69;5113947;28;20010;-71
2021/12/22 03:56:20;;;;;;;;;;;;;;;-2.66;100.00;101364.88;5117529;27;19911;-71
2021/12/22 03:58:46;;;;;;;;;;;;;;;-3.18;100.00;101368.97;5139009;27;20276;-71
2021/12/22 04:01:13;;;;;;;;;;;;;;;-2.86;100.00;101373.88;5138930;27;19923;-72
2021/12/22 04:03:41;;;;;;;;;;;;;;;-2.99;100.00;101363.28;5139173;27;20377;-71
2021/12/22 04:06:07;;;;;;;;;;;;;;;-2.98;100.00;101373.28;5120659;27;19915;-71
2021/12/22 04:08:33;;;;;;;;;;;;;;;-2.67;100.00;101365.63;5120646;27;20503;-71
2021/12/22 04:10:59;;;;;;;;;;;;;;;-2.77;100.00;101365.97;5139639;27;19926;-71
2021/12/22 04:13:25;;;;;;;;;;;;;;;-3.18;100.00;101373.94;5138852;27;19915;-71
2021/12/22 04:15:58;;;;;;;;;;;;;;;-2.78;100.00;101371.75;5139292;27;20374;-71
2021/12/22 04:18:25;;;;;;;;;;;;;;;-2.86;100.00;101371.41;5120560;27;19911;-71
2021/12/22 04:20:51;;;;;;;;;;;;;;;-2.97;100.00;101374.16;5138914;27;19915;-71
2021/12/22 04:23:18;;;;;;;;;;;;;;;-2.58;100.00;101366.09;5139031;27;19934;-71
2021/12/22 04:25:46;;;;;;;;;;;;;;;-2.95;100.00;101377.56;5138762;27;19911;-72
2021/12/22 04:28:13;;;;;;;;;;;;;;;-2.42;100.00;101380.09;5138757;27;19918;-70
2021/12/22 04:30:48;;;;;;;;;;;;;;;-3.10;100.00;101394.22;5138824;27;19951;-71
2021/12/22 04:33:17;;;;;;;;;;;;;;;-3.05;100.00;101390.31;5138790;27;20390;-71
2021/12/22 04:35:47;;;;;;;;;;;;;;;-2.56;100.00;101381.94;5138978;27;20010;-72
2021/12/22 04:38:13;;;;;;;;;;;;;;;-2.62;100.00;101386.63;5139005;27;20381;-73
2021/12/22 04:40:39;;;;;;;;;;;;;;;-2.83;100.00;101390.56;5138925;27;20321;-71
2021/12/22 04:43:08;;;;;;;;;;;;;;;-2.43;100.00;101388.31;5120304;27;19974;-72
2021/12/22 04:45:47;;;;;;;;;;;;;;;-2.60;100.00;101391.66;5109022;28;19915;-73
2021/12/22 04:48:24;;;;;;;;;;;;;;;-2.55;100.00;101393.59;5117933;28;19912;-73
2021/12/22 04:50:52;;;;;;;;;;;;;;;-2.93;100.00;101391.75;5118223;28;19915;-72
2021/12/22 04:53:26;;;;;;;;;;;;;;;-3.10;100.00;101394.22;5098723;28;20010;-72
2021/12/22 04:55:52;;;;;;;;;;;;;;;-2.76;100.00;101390.97;5117847;28;20005;-70
2021/12/22 04:58:17;;;;;;;;;;;;;;;-3.67;100.00;101397.09;5117580;28;19959;-71
2021/12/22 05:00:43;;;;;;;;;;;;;;;-3.09;100.00;101403.38;5117438;28;19919;-71
2021/12/22 05:03:21;;;;;;;;;;;;;;;-2.82;100.00;101402.25;5118411;28;20470;-74
2021/12/22 05:06:02;;;;;;;;;;;;;;;-3.02;100.00;101402.91;5117969;28;20397;-74
2021/12/22 05:08:36;;;;;;;;;;;;;;;-2.90;100.00;101403.50;5096047;28;20276;-76
2021/12/22 05:14:00;;;;;;;;;;;;;;;-3.58;100.00;101398.44;5115040;28;19944;-72
2021/12/22 05:16:48;;;;;;;;;;;;;;;-3.60;100.00;101409.91;5096299;28;20330;-74
2021/12/22 05:19:42;;;;;;;;;;;;;;;-3.40;100.00;101408.44;5096583;28;20391;-75
2021/12/22 05:22:12;;;;;;;;;;;;;;;-2.69;100.00;101415.34;5114086;28;19912;-73
2021/12/22 05:24:54;;;;;;;;;;;;;;;-3.44;100.00;101406.59;5115118;28;20061;-74
2021/12/22 05:27:20;;;;;;;;;;;;;;;-3.46;100.00;101404.78;5114594;28;20295;-72
2021/12/22 05:29:48;;;;;;;;;;;;;;;-3.32;100.00;101414.66;5113976;28;19919;-72
2021/12/22 05:32:16;;;;;;;;;;;;;;;-3.63;100.00;101414.75;5114524;28;19923;-71
2021/12/22 05:34:44;;;;;;;;;;;;;;;-3.01;100.00;101414.56;5114453;28;19918;-72
2021/12/22 05:37:30;;;;;;;;;;;;;;;-3.10;100.00;101412.47;5113904;28;19919;-75
2021/12/22 05:40:00;;;;;;;;;;;;;;;-3.39;100.00;101416.75;5113757;28;19919;-73
2021/12/22 05:42:27;;;;;;;;;;;;;;;-2.87;100.00;101413.59;5114009;28;20397;-75
2021/12/22 05:44:52;;;;;;;;;;;;;;;-3.12;100.00;101416.50;5114268;28;19957;-70
2021/12/22 05:47:25;;;;;;;;;;;;;;;-2.55;100.00;101413.50;5096165;28;19923;-73
2021/12/22 05:49:53;;;;;;;;;;;;;;;-2.98;100.00;101418.06;5096021;28;19919;-73
2021/12/22 05:52:31;;;;;;;;;;;;;;;-2.94;100.00;101419.03;5114106;28;19984;-72
2021/12/22 05:54:57;;;;;;;;;;;;;;;-2.98;100.00;101417.19;5114303;28;19911;-72
2021/12/22 05:57:22;;;;;;;;;;;;;;;-3.17;100.00;101424.53;5095156;28;19923;-72
2021/12/22 05:59:51;;;;;;;;;;;;;;;-3.43;100.00;101422.34;5095272;28;20010;-72
2021/12/22 06:02:19;;;;;;;;;;;;;;;-3.51;100.00;101429.41;5113942;28;19919;-72
2021/12/22 06:04:45;;;;;;;;;;;;;;;-3.49;100.00;101425.38;5113146;28;20006;-72
2021/12/22 06:07:14;;;;;;;;;;;;;;;-3.20;100.00;101431.81;5094680;28;19965;-73
2021/12/22 06:09:40;;;;;;;;;;;;;;;-3.24;100.00;101433.28;5094756;28;19920;-72
2021/12/22 06:12:06;;;;;;;;;;;;;;;-3.22;100.00;101440.81;5112619;28;20496;-72
2021/12/22 06:14:33;;;;;;;;;;;;;;;-3.17;100.00;101444.41;5112961;28;19919;-72
2021/12/22 06:17:03;;;;;;;;;;;;;;;-3.48;100.00;101443.59;5095015;28;19935;-73
2021/12/22 06:19:33;;;;;;;;;;;;;;;-3.63;100.00;101446.19;5095140;28;19922;-72
2021/12/22 06:22:12;;;;;;;;;;;;;;;-3.15;100.00;101450.31;5095618;28;20310;-72
2021/12/22 06:24:41;;;;;;;;;;;;;;;-3.11;100.00;101448.03;5113792;28;19922;-73
2021/12/22 06:27:07;;;;;;;;;;;;;;;-2.60;100.00;101444.78;5113467;28;20000;-72
2021/12/22 06:29:33;;;;;;;;;;;;;;;-1.85;100.00;101445.00;5113384;28;19911;-72
2021/12/22 06:32:05;;;;;;;;;;;;;;;-0.46;100.00;101428.53;5095138;28;20003;-72
2021/12/22 06:34:31;;;;;;;;;;;;;;;-0.19;100.00;101427.09;5113321;28;20366;-71
2021/12/22 06:36:56;;;;;;;;;;;;;;;0.91;100.00;101428.66;5113055;28;20007;-71
2021/12/22 06:39:22;;;;;;;;;;;;;;;0.91;94.76;101438.66;5094734;28;20002;-72
2021/12/22 06:41:48;;;;;;;;;;;;;;;2.20;86.65;101424.41;5094803;28;19920;-71
2021/12/22 06:44:23;;;;;;;;;;;;;;;2.38;77.71;101432.47;5094713;28;19969;-71
2021/12/22 06:46:49;;;;;;;;;;;;;;;3.51;72.21;101420.41;5094711;28;19994;-71
2021/12/22 06:49:16;;;;;;;;;;;;;;;3.47;71.59;101421.13;5094599;28;19937;-71
2021/12/22 06:51:42;;;;;;;;;;;;;;;3.57;68.96;101423.84;5112958;28;19912;-71
2021/12/22 06:54:09;;;;;;;;;;;;;;;4.30;65.93;101423.00;5112771;28;19923;-71
2021/12/22 06:56:35;;;;;;;;;;;;;;;4.67;63.92;101414.53;5094171;28;20050;-72
2021/12/22 06:59:01;;;;;;;;;;;;;;;5.13;64.91;101414.50;5112391;28;19955;-71
2021/12/22 07:01:27;;;;;;;;;;;;;;;5.74;62.09;101418.88;5094209;28;19961;-71
2021/12/22 07:03:53;;;;;;;;;;;;;;;1.18;76.00;101438.72;5094452;28;20373;-71
2021/12/22 07:06:18;;;;;;;;;;;;;;;-0.66;100.00;101440.22;5094100;28;19915;-71
2021/12/22 07:08:43;;;;;;;;;;;;;;;-0.67;100.00;101447.66;5112267;28;19918;-71
2021/12/22 07:11:09;;;;;;;;;;;;;;;-0.72;100.00;101439.97;5112860;28;20359;-72
2021/12/22 07:13:35;;;;;;;;;;;;;;;-0.37;100.00;101439.72;5112072;28;19922;-72
2021/12/22 07:16:00;;;;;;;;;;;;;;;0.42;100.00;101441.06;5112203;28;19947;-72
2021/12/22 07:18:26;;;;;;;;;;;;;;;-0.30;100.00;101435.84;5112207;28;19911;-71
2021/12/22 07:20:51;;;;;;;;;;;;;;;-0.80;100.00;101441.28;5112106;28;19912;-72
2021/12/22 07:23:16;;;;;;;;;;;;;;;0.11;100.00;101432.41;5094006;28;19912;-71
2021/12/22 07:25:43;;;;;;;;;;;;;;;-0.33;100.00;101425.69;5112058;28;19919;-71
2021/12/22 07:28:10;;;;;;;;;;;;;;;0.01;100.00;101426.22;5112114;28;19922;-72
2021/12/22 07:30:36;;;;;;;;;;;;;;;-0.51;100.00;101432.47;5093413;28;20310;-72
2021/12/22 07:33:01;;;;;;;;;;;;;;;-0.65;100.00;101436.91;5111916;28;20014;-72
2021/12/22 07:35:30;;;;;;;;;;;;;;;-0.14;100.00;101425.63;5112302;28;19911;-71
2021/12/22 07:38:07;;;;;;;;;;;;;;;0.40;100.00;101429.31;5111888;28;19918;-71
2021/12/22 07:40:32;;;;;;;;;;;;;;;-0.04;100.00;101427.69;5093563;28;19916;-71
2021/12/22 07:42:57;;;;;;;;;;;;;;;0.21;100.00;101436.94;5111977;28;19926;-72
2021/12/22 07:45:23;;;;;;;;;;;;;;;0.75;100.00;101427.25;5111803;28;19922;-71
2021/12/22 07:47:48;;;;;;;;;;;;;;;0.33;100.00;101434.91;5111761;28;20311;-71
2021/12/22 07:50:13;;;;;;;;;;;;;;;0.70;100.00;101441.28;5111966;28;19911;-71
2021/12/22 07:52:39;;;;;;;;;;;;;;;1.43;100.00;101431.22;5093406;28;19911;-72
2021/12/22 07:55:04;;;;;;;;;;;;;;;0.14;100.00;101442.53;5111835;28;19915;-71
2021/12/22 07:57:30;;;;;;;;;;;;;;;0.70;100.00;101437.91;5111603;28;20394;-72
2021/12/22 07:59:55;;;;;;;;;;;;;;;0.83;100.00;101438.38;5111694;28;19918;-71
2021/12/22 08:02:20;;;;;;;;;;;;;;;0.75;100.00;101438.94;5093510;28;19918;-71
2021/12/22 08:04:45;;;;;;;;;;;;;;;0.77;100.00;101442.34;5111727;28;20501;-71
2021/12/22 08:07:11;;;;;;;;;;;;;;;0.49;100.00;101432.16;5093537;28;19912;-72
2021/12/22 08:09:36;;;;;;;;;;;;;;;0.84;100.00;101439.25;5111932;28;20027;-72
2021/12/22 08:12:05;;;;;;;;;;;;;;;0.93;98.75;101439.56;5093162;28;19916;-72
2021/12/22 08:14:34;;;;;;;;;;;;;;;0.98;95.64;101448.06;5111708;28;19968;-72
2021/12/22 08:17:00;;;;;;;;;;;;;;;0.50;97.43;101442.22;5111725;28;20038;-72
2021/12/22 08:19:25;;;;;;;;;;;;;;;0.27;98.13;101447.16;5111671;28;19912;-72
2021/12/22 08:21:50;;;;;;;;;;;;;;;0.58;89.79;101452.47;5093530;28;19969;-72
2021/12/22 08:24:16;;;;;;;;;;;;;;;0.69;88.48;101448.72;5111497;28;19918;-71
2021/12/22 08:26:42;;;;;;;;;;;;;;;0.58;86.03;101454.97;5093235;28;20288;-71
2021/12/22 08:29:07;;;;;;;;;;;;;;;0.64;85.65;101450.19;5111538;28;20434;-72
2021/12/22 08:31:33;;;;;;;;;;;;;;;1.02;86.96;101454.03;5111260;28;19918;-71
2021/12/22 08:33:58;;;;;;;;;;;;;;;0.81;85.92;101456.66;5111587;28;19912;-71
2021/12/22 08:39:08;;;;;;;;;;;;;;;0.66;79.11;101459.47;5111490;28;19945;-73
2021/12/22 08:41:35;;;;;;;;;;;;;;;0.47;76.78;101453.75;5111799;28;19915;-72
2021/12/22 08:44:02;;;;;;;;;;;;;;;0.45;78.44;101457.84;5114307;28;19938;-72
2021/12/22 08:46:28;;;;;;;;;;;;;;;0.70;78.64;101456.28;5096970;28;19916;-72
2021/12/22 08:48:55;;;;;;;;;;;;;;;0.85;79.68;101445.97;5115334;28;19922;-72
2021/12/22 08:51:21;;;;;;;;;;;;;;;1.30;78.94;101445.00;5114993;28;19919;-71
2021/12/22 08:53:46;;;;;;;;;;;;;;;0.89;78.23;101451.09;5114963;28;20027;-72
2021/12/22 08:56:12;;;;;;;;;;;;;;;1.05;77.85;101449.97;5096963;28;20391;-71
2021/12/22 08:58:38;;;;;;;;;;;;;;;0.84;77.84;101446.75;5114598;28;20318;-71
2021/12/22 09:01:04;;;;;;;;;;;;;;;1.40;77.16;101447.00;5114947;28;19935;-72
2021/12/22 09:03:29;;;;;;;;;;;;;;;1.28;77.90;101439.09;5096563;28;19919;-71
2021/12/22 09:05:54;;;;;;;;;;;;;;;0.93;72.82;101448.72;5096519;28;19976;-72
2021/12/22 09:08:20;;;;;;;;;;;;;;;1.04;72.07;101438.28;5114756;28;19920;-72
2021/12/22 09:10:45;;;;;;;;;;;;;;;1.51;72.74;101419.78;5115062;28;19911;-72
2021/12/22 09:13:13;;;;;;;;;;;;;;;1.29;72.34;101428.25;5114515;28;19927;-72
2021/12/22 09:15:39;;;;;;;;;;;;;;;0.88;73.15;101428.53;5096554;28;20382;-72
2021/12/22 09:18:04;;;;;;;;;;;;;;;1.38;72.33;101421.06;5096483;28;19919;-73
2021/12/22 09:20:29;;;;;;;;;;;;;;;1.54;69.37;101413.22;5114942;28;20386;-73
2021/12/22 09:22:55;;;;;;;;;;;;;;;1.15;67.50;101416.94;5096364;28;19968;-72
2021/12/22 09:25:20;;;;;;;;;;;;;;;1.19;66.63;101412.91;5096447;28;19916;-72
2021/12/22 09:27:45;;;;;;;;;;;;;;;1.33;67.94;101407.53;5096532;28;20009;-72
2021/12/22 09:30:11;;;;;;;;;;;;;;;1.71;67.91;101408.72;5096201;28;19935;-72
2021/12/22 09:32:38;;;;;;;;;;;;;;;1.37;67.45;101398.44;5096059;28;19912;-72
2021/12/22 09:35:03;;;;;;;;;;;;;;;1.39;66.70;101396.84;5096286;28;19969;-73
2021/12/22 09:37:29;;;;;;;;;;;;;;;1.47;66.12;101391.28;5096185;28;19912;-72
2021/12/22 09:39:54;;;;;;;;;;;;;;;1.56;65.88;101388.22;5114570;28;19951;-72
2021/12/22 09:42:19;;;;;;;;;;;;;;;1.54;66.81;101378.16;5095849;28;20363;-72
2021/12/22 09:44:46;;;;;;;;;;;;;;;1.55;64.84;101384.84;5114163;28;19938;-73
2021/12/22 09:47:13;;;;;;;;;;;;;;;1.05;64.66;101379.88;5114451;28;19912;-72
2021/12/22 09:52:21;;;;;;;;;;;;;;;1.32;63.26;101374.94;5113979;28;19998;-72
2021/12/22 09:54:48;;;;;;;;;;;;;;;1.46;64.86;101373.72;5095437;28;20002;-72
2021/12/22 09:57:16;;;;;;;;;;;;;;;1.30;64.84;101369.88;5113728;28;19912;-73
2021/12/22 09:59:42;;;;;;;;;;;;;;;1.70;64.66;101370.28;5113977;28;19916;-72
2021/12/22 10:02:07;;;;;;;;;;;;;;;1.84;63.05;101372.34;5113981;28;19972;-72
2021/12/22 10:04:33;;;;;;;;;;;;;;;1.60;62.15;101374.97;5113999;28;19919;-74
2021/12/22 10:06:58;;;;;;;;;;;;;;;2.01;61.92;101368.69;5114284;28;19915;-73
2021/12/22 10:09:24;;;;;;;;;;;;;;;1.47;60.96;101376.25;5113686;28;19970;-73
2021/12/22 10:11:50;;;;;;;;;;;;;;;1.53;60.80;101370.56;5113589;28;19965;-73
2021/12/22 10:14:21;;;;;;;;;;;;;;;1.87;61.31;101365.78;5095520;28;20013;-72
2021/12/22 10:16:51;;;;;;;;;;;;;;;1.73;61.71;101360.34;5113756;28;19911;-72
2021/12/22 10:19:17;;;;;;;;;;;;;;;1.87;61.86;101358.25;5113596;28;19951;-72
2021/12/22 10:21:51;;;;;;;;;;;;;;;1.81;61.94;101363.09;5113609;28;20324;-72
2021/12/22 10:24:16;;;;;;;;;;;;;;;1.98;60.96;101356.06;5113447;28;19911;-72
2021/12/22 10:26:42;;;;;;;;;;;;;;;1.98;61.83;101356.88;5095121;28;19995;-72
2021/12/22 10:29:08;;;;;;;;;;;;;;;1.90;61.88;101362.50;5095244;28;19924;-73
2021/12/22 10:31:38;;;;;;;;;;;;;;;1.89;61.86;101358.28;5113118;28;20018;-72
2021/12/22 10:34:05;;;;;;;;;;;;;;;2.00;61.84;101356.97;5095132;28;19911;-72
2021/12/22 10:36:40;;;;;;;;;;;;;;;1.58;61.54;101364.06;5113305;28;19912;-73
2021/12/22 10:39:05;;;;;;;;;;;;;;;2.10;61.54;101353.91;5113198;28;19961;-72
2021/12/22 10:41:31;;;;;;;;;;;;;;;2.36;60.16;101343.78;5095148;28;19912;-71
2021/12/22 10:43:57;;;;;;;;;;;;;;;2.46;60.35;101343.22;5112748;28;19927;-73
2021/12/22 10:46:33;;;;;;;;;;;;;;;2.48;59.89;101339.09;5112944;28;19911;-72
2021/12/22 10:49:20;;;;;;;;;;;;;;;1.99;60.47;101332.69;5094796;28;20383;-72
2021/12/22 10:51:56;;;;;;;;;;;;;;;2.24;61.23;101335.09;5113093;28;20411;-72
2021/12/22 10:54:29;;;;;;;;;;;;;;;2.20;59.77;101328.28;5094647;28;20349;-72
2021/12/22 10:56:57;;;;;;;;;;;;;;;1.96;60.15;101327.59;5094528;28;20396;-71
2021/12/22 10:59:22;;;;;;;;;;;;;;;2.38;60.32;101318.72;5112700;28;19994;-71
2021/12/22 11:01:53;;;;;;;;;;;;;;;2.59;59.28;101326.81;5094100;28;19962;-72
2021/12/22 11:04:23;;;;;;;;;;;;;;;2.52;59.42;101319.94;5094219;28;19969;-72
2021/12/22 11:06:50;;;;;;;;;;;;;;;2.86;60.00;101314.97;5093733;28;19937;-72
2021/12/22 11:09:16;;;;;;;;;;;;;;;2.83;60.08;101311.53;5112362;28;19911;-72
2021/12/22 11:11:49;;;;;;;;;;;;;;;2.94;60.32;101308.47;5112981;28;19916;-72
2021/12/22 11:14:16;;;;;;;;;;;;;;;2.73;59.91;101305.44;5112628;28;20007;-72
2021/12/22 11:17:00;;;;;;;;;;;;;;;2.45;59.25;101301.38;5094456;28;19912;-72
2021/12/22 11:19:28;;;;;;;;;;;;;;;2.98;59.56;101296.81;5112303;28;19912;-72
2021/12/22 11:22:13;;;;;;;;;;;;;;;2.82;59.54;101295.59;5112506;28;19911;-72
2021/12/22 11:24:41;;;;;;;;;;;;;;;2.56;59.67;101299.97;5112480;28;20532;-72
2021/12/22 11:27:07;;;;;;;;;;;;;;;2.90;59.27;101298.28;5112297;28;19911;-73
2021/12/22 11:29:34;;;;;;;;;;;;;;;2.86;60.01;101291.50;5094178;28;19920;-72
2021/12/22 11:32:01;;;;;;;;;;;;;;;3.08;61.53;101284.53;5094013;28;20516;-71
2021/12/22 11:34:29;;;;;;;;;;;;;;;2.62;60.09;101290.09;5094198;28;20357;-72
2021/12/22 11:36:56;;;;;;;;;;;;;;;2.48;59.76;101291.41;5093978;28;20306;-72
2021/12/22 11:39:22;;;;;;;;;;;;;;;2.87;60.22;101284.03;5111876;28;19915;-73
2021/12/22 11:41:56;;;;;;;;;;;;;;;3.30;59.71;101284.19;5093978;28;20014;-73
2021/12/22 11:44:32;;;;;;;;;;;;;;;3.18;58.53;101288.94;5112408;28;19934;-73
2021/12/22 11:46:59;;;;;;;;;;;;;;;3.34;57.78;101283.47;5093932;28;19918;-72
2021/12/22 11:49:25;;;;;;;;;;;;;;;3.12;57.60;101285.44;5111808;28;19915;-72
2021/12/22 11:51:50;;;;;;;;;;;;;;;2.72;58.63;101278.63;5093733;28;19927;-73
2021/12/22 11:54:16;;;;;;;;;;;;;;;2.53;58.87;101278.97;5111946;28;19912;-72
2021/12/22 11:56:46;;;;;;;;;;;;;;;2.34;59.47;101276.78;5111939;28;19915;-74
2021/12/22 11:59:27;;;;;;;;;;;;;;;2.48;59.91;101276.34;5093600;28;20379;-73
2021/12/22 12:02:11;;;;;;;;;;;;;;;2.59;60.16;101264.09;5093781;28;19911;-72
2021/12/22 12:04:36;;;;;;;;;;;;;;;2.52;59.52;101267.22;5111949;28;19951;-72
2021/12/22 12:07:01;;;;;;;;;;;;;;;2.54;58.62;101265.59;5112060;28;20323;-74
2021/12/22 12:09:29;;;;;;;;;;;;;;;3.03;57.76;101265.16;5093457;28;20323;-72
2021/12/22 12:11:56;;;;;;;;;;;;;;;3.24;58.17;101270.66;5093394;28;19966;-72
2021/12/22 12:14:37;;;;;;;;;;;;;;;3.29;58.48;101267.41;5093469;28;19935;-74
2021/12/22 12:23:36;;;;;;;;;;;;;;;3.69;54.78;101259.06;5077552;28;19918;-74
2021/12/22 12:26:04;;;;;;;;;;;;;;;3.56;55.77;101252.09;5077285;28;19919;-73
2021/12/22 12:28:29;;;;;;;;;;;;;;;3.71;58.06;101251.53;5115764;28;19911;-73
2021/12/22 12:30:55;;;;;;;;;;;;;;;3.49;58.39;101255.28;5097818;28;20064;-74
2021/12/22 12:33:30;;;;;;;;;;;;;;;3.87;56.96;101243.47;5115623;28;19919;-73
2021/12/22 12:35:56;;;;;;;;;;;;;;;3.29;58.99;101246.47;5097361;28;19912;-73
2021/12/22 12:38:24;;;;;;;;;;;;;;;3.77;57.12;101241.59;5115785;28;19919;-73
2021/12/22 12:41:11;;;;;;;;;;;;;;;3.02;58.35;101245.84;5115610;28;20341;-72
2021/12/22 12:43:43;;;;;;;;;;;;;;;3.10;58.27;101245.22;5097189;28;19922;-74
2021/12/22 12:48:48;;;;;;;;;;;;;;;3.09;58.85;101241.00;5115902;28;20395;-73
2021/12/22 12:51:14;;;;;;;;;;;;;;;3.51;57.04;101234.38;5115126;28;20383;-72
2021/12/22 12:53:41;;;;;;;;;;;;;;;2.88;59.18;101227.09;5115209;28;19911;-72
2021/12/22 12:56:08;;;;;;;;;;;;;;;3.07;58.96;101234.25;5096976;28;20376;-72
2021/12/22 12:58:34;;;;;;;;;;;;;;;3.01;58.28;101239.16;5114846;28;19916;-72
2021/12/22 13:00:59;;;;;;;;;;;;;;;3.09;58.49;101243.50;5097158;28;20315;-73
2021/12/22 13:03:25;;;;;;;;;;;;;;;3.23;57.89;101234.63;5096924;28;20002;-73
2021/12/22 13:05:50;;;;;;;;;;;;;;;3.19;58.21;101242.91;5096806;28;19918;-73
2021/12/22 13:08:15;;;;;;;;;;;;;;;2.80;58.71;101243.66;5115146;28;19915;-72
2021/12/22 13:10:44;;;;;;;;;;;;;;;2.94;58.83;101243.16;5096600;28;19919;-73
2021/12/22 13:13:15;;;;;;;;;;;;;;;2.75;58.38;101237.69;5096385;28;19970;-72
2021/12/22 13:15:49;;;;;;;;;;;;;;;3.14;57.69;101238.59;5114771;28;20401;-72
2021/12/22 13:18:26;;;;;;;;;;;;;;;2.90;57.25;101233.00;5114786;28;19922;-73